Terminal Aerodrome Forecast
Issued by NWS

Current Version | Previous Version | Graphics & Text | Print | Product List | Glossary On
Versions: 1 2 3 4 5 6 7 8 9 10 11 12 13 14 15 16 17 18 19 20
000
FTUS41 KILN 290200 AAA
TAFLUK
TAF AMD
KLUK 290229Z 2902/2924 26005KT P6SM VCSH BKN100 OVC200
     FM290600 26003KT P6SM SCT100 BKN250
     FM291200 26005KT P6SM SCT200
     FM291400 28008KT P6SM SCT040
     FM291800 28010G16KT P6SM BKN040=

USA.gov is the U.S. government's official web portal to all federal, state and local government web resources and services.